Abbeville, Louisiana
Current Conditions -  °F | °C
As of 6:15 PM on Thursday 18 Dec 2014 (Local Time) from KIYA Reporting Station
Overcast Overcast  
Wind Chill: 62°   Ceiling: 1100
Heat Index: 62°   Visibility: 10mi
Dew Point: 56°   Wind: 5mph
Humidity: 82%   Direction: 30°NNE
Pressure: 30.09"   Gusts: NA
Location:  29.97°N, 92.13°W
Report Text: KIYA 190015Z AUTO 03004KT 10SM OVC011 17/13 A3009 RMK AO2 T01650134 TSNO
Loading
Personal Weather Stations






























Interactive Weather Map New forecast layout! Learn more

10-Day Weather Forecast

Advertisements
Track Severe Weather on mobile